• images/banner/banner1.jpg
  • images/banner/banner2.jpg

Team Member Login

Aviation Weather

[source: ADDS]
METAR
EGVN 170950Z 08010KT 8000 HZ FEW010 SCT013 07/05 Q1027 GRN BECMG SCT015 WHT =
TAF EGVN 170817Z 1709/1809 10012KT 9999 SCT012 BECMG 1709/1712 FEW015
TAF
TAF EGVN 170817Z 1709/1809 10012KT 9999 SCT012 BECMG 1709/1712 FEW015 =